This is the latest recevied weather packets stored in our database for station/object K2ATL. If no packets are shown the sender has not sent any weather packets the latest 10 day(s).
| Time | Temp. | Humidity | Pressure | Rain* | Wind** | Luminosity | Snow |
|---|---|---|---|---|---|---|---|
| 1788020052 | 26.67° C | 75% | 1108 hPa | 0 mm | - | 296 W/m² | - |
| 1788019751 | 26.11° C | 74% | 1107.9 hPa | 0 mm | - | 789 W/m² | - |
| 1788019451 | 25° C | 73% | 1107.9 hPa | 0 mm | - | 738 W/m² | - |
| 1788019148 | 25.56° C | 77% | 1107.8 hPa | 0 mm | - | 727 W/m² | - |
| 1788018843 | 25° C | 76% | 1107.8 hPa | 0 mm | - | 731 W/m² | - |
| 1788018538 | 24.44° C | 79% | 1108 hPa | 0 mm | - | 739 W/m² | - |
| 1788018237 | 25.56° C | 80% | 1108 hPa | 0 mm | - | 165 W/m² | - |
| 1788017933 | 26.67° C | 78% | 1108 hPa | 0 mm | - | 130 W/m² | - |
| 1788017629 | 23.33° C | 82% | 1107.9 hPa | 0 mm | - | 706 W/m² | - |
| 1788017326 | 25.56° C | 82% | 1107.9 hPa | 0 mm | - | 108 W/m² | - |
| 1788017022 | 24.44° C | 79% | 1107.8 hPa | 0 mm | - | 499 W/m² | - |
| 1788016721 | 26.67° C | 77% | 1107.9 hPa | 0 mm | - | 171 W/m² | - |
| 1788016420 | 23.89° C | 80% | 1107.9 hPa | 0 mm | - | 628 W/m² | - |
| 1788016119 | 23.33° C | 82% | 1107.7 hPa | 0 mm | - | 605 W/m² | - |
| 1788015818 | 23.33° C | 82% | 1107.7 hPa | 0 mm | - | 598 W/m² | - |
| 1788015513 | 23.33° C | 79% | 1107.7 hPa | 0 mm | - | 568 W/m² | - |
| 1788015208 | 22.78° C | 83% | 1107.7 hPa | 0 mm | - | 552 W/m² | - |
| 1788014907 | 21.67° C | 86% | 1107.6 hPa | 0 mm | - | 604 W/m² | - |
| 1788014601 | 21.11° C | 89% | 1107.7 hPa | 0 mm | - | 574 W/m² | - |
| 1788014297 | 21.11° C | 88% | 1107.4 hPa | 0 mm | - | 402 W/m² | - |
| 1788013992 | 22.22° C | 90% | 1107.6 hPa | 0 mm | - | 186 W/m² | - |
| 1788013687 | 22.78° C | 90% | 1107.4 hPa | 0 mm | - | 91 W/m² | - |
| 1788013386 | 22.78° C | 89% | 1107.3 hPa | 0 mm | - | 85 W/m² | - |
| 1788013086 | 22.22° C | 91% | 1107.4 hPa | 0 mm | - | 114 W/m² | - |
| 1788012785 | 22.78° C | 90% | 1107.4 hPa | 0 mm | - | 71 W/m² | - |
* Rain latest hour (hover to see other rain measurements)
** Current wind speed in m/s (hover to see current wind gust speed)